Time;durP1;ratioP1;P1;durP2;ratioP2;P2;SDS_P1;SDS_P2;PMS_P1;PMS_P2;Temp;Humidity;BMP_temperature;BMP_pressure;BME280_temperature;BME280_humidity;BME280_pressure;Samples;Min_cycle;Max_cycle;Signal;HPM_P1;HPM_P2
2022/03/23 00:01:24;;;;;;;39.37;26.10;;;7.30;99.90;;;;;;5083422;27;20039;-73
2022/03/23 00:03:50;;;;;;;54.87;31.83;;;7.20;99.90;;;;;;5092987;27;20580;-73
2022/03/23 00:06:17;;;;;;;46.27;29.53;;;7.20;99.90;;;;;;5106304;27;20484;-73
2022/03/23 00:08:43;;;;;;;40.70;27.17;;;7.20;99.90;;;;;;5087966;28;20048;-73
2022/03/23 00:11:09;;;;;;;42.60;27.03;;;7.10;99.90;;;;;;5078624;27;20408;-73
2022/03/23 00:13:34;;;;;;;44.90;27.83;;;7.10;99.90;;;;;;5104657;28;20400;-73
2022/03/23 00:16:00;;;;;;;39.80;25.43;;;7.10;99.90;;;;;;5102539;27;20047;-73
2022/03/23 00:18:26;;;;;;;35.97;25.00;;;7.10;99.90;;;;;;5112487;27;20416;-73
2022/03/23 00:20:52;;;;;;;43.27;28.47;;;7.00;99.90;;;;;;5094337;27;20104;-73
2022/03/23 00:23:19;;;;;;;42.00;28.57;;;7.00;99.90;;;;;;5105223;27;20078;-73
2022/03/23 00:25:44;;;;;;;45.70;28.00;;;7.00;99.90;;;;;;5106767;27;20436;-73
2022/03/23 00:28:10;;;;;;;55.40;33.07;;;6.90;99.90;;;;;;5090147;27;20047;-73
2022/03/23 00:30:36;;;;;;;54.70;34.73;;;6.90;99.90;;;;;;5109444;27;20043;-73
2022/03/23 00:33:02;;;;;;;47.30;30.40;;;6.90;99.90;;;;;;5104482;27;20051;-73
2022/03/23 00:35:28;;;;;;;50.13;30.57;;;6.80;99.90;;;;;;5101791;28;20400;-73
2022/03/23 00:37:55;;;;;;;48.80;32.40;;;6.80;99.90;;;;;;5091734;27;20117;-73
2022/03/23 00:40:22;;;;;;;47.70;30.53;;;6.70;99.90;;;;;;5083148;27;20043;-73
2022/03/23 00:42:48;;;;;;;44.07;30.43;;;6.70;99.90;;;;;;5078913;28;20059;-73
2022/03/23 00:45:14;;;;;;;47.50;30.73;;;6.70;99.90;;;;;;5106852;27;20106;-73
2022/03/23 00:47:41;;;;;;;53.53;32.20;;;6.70;99.90;;;;;;5086630;28;20572;-73
2022/03/23 00:50:07;;;;;;;50.87;32.67;;;6.70;99.90;;;;;;5079489;27;20063;-73
2022/03/23 00:52:36;;;;;;;54.30;34.50;;;6.70;99.90;;;;;;5093052;28;20122;-73
2022/03/23 00:55:03;;;;;;;51.40;34.50;;;6.70;99.90;;;;;;5090656;27;20046;-73
2022/03/23 00:57:31;;;;;;;56.70;33.57;;;6.70;99.90;;;;;;5113253;27;20039;-73
2022/03/23 00:59:57;;;;;;;50.60;33.60;;;6.70;99.90;;;;;;5090794;27;20523;-73
2022/03/23 01:02:23;;;;;;;57.00;34.90;;;6.70;99.90;;;;;;5092515;27;20039;-73
2022/03/23 01:04:48;;;;;;;55.60;33.43;;;6.80;99.90;;;;;;5107423;27;20389;-73
2022/03/23 01:07:14;;;;;;;63.20;37.80;;;6.80;99.90;;;;;;5072251;27;20043;-73
2022/03/23 01:09:40;;;;;;;62.77;36.60;;;6.80;99.90;;;;;;5091992;27;20038;-73
2022/03/23 01:12:08;;;;;;;52.73;32.40;;;6.80;99.90;;;;;;5113087;27;20043;-72
2022/03/23 01:14:35;;;;;;;52.77;34.63;;;6.80;99.90;;;;;;5083087;28;20040;-73
2022/03/23 01:17:01;;;;;;;47.97;31.30;;;6.80;99.90;;;;;;5094044;28;20055;-73
2022/03/23 01:19:27;;;;;;;46.03;30.13;;;6.70;99.90;;;;;;5091850;28;20043;-73
2022/03/23 01:21:53;;;;;;;47.33;29.33;;;6.70;99.90;;;;;;5088100;27;20039;-73
2022/03/23 01:24:19;;;;;;;61.70;37.97;;;6.70;99.90;;;;;;5086117;27;20038;-73
2022/03/23 01:26:45;;;;;;;51.37;33.07;;;6.60;99.90;;;;;;5089626;28;20439;-73
2022/03/23 01:29:11;;;;;;;57.07;34.57;;;6.60;99.90;;;;;;5107558;28;20043;-73
2022/03/23 01:31:40;;;;;;;56.70;36.10;;;6.50;99.90;;;;;;5089054;28;20134;-73
2022/03/23 01:34:07;;;;;;;61.20;36.83;;;6.50;99.90;;;;;;5110608;28;20045;-73
2022/03/23 01:36:33;;;;;;;56.40;35.87;;;6.40;99.90;;;;;;5104976;28;20465;-72
2022/03/23 01:38:59;;;;;;;57.60;35.93;;;6.40;99.90;;;;;;5109620;28;20114;-73
2022/03/23 01:41:25;;;;;;;62.20;32.70;;;6.40;99.90;;;;;;5126438;28;20069;-73
2022/03/23 01:43:51;;;;;;;52.67;34.70;;;6.40;99.90;;;;;;5107106;28;20453;-73
2022/03/23 01:46:18;;;;;;;50.40;32.60;;;6.30;99.90;;;;;;5088785;28;20039;-73
2022/03/23 01:48:46;;;;;;;59.27;34.83;;;6.30;99.90;;;;;;5120584;28;20047;-73
2022/03/23 01:51:13;;;;;;;50.67;31.63;;;6.30;99.90;;;;;;5115493;28;20441;-73
2022/03/23 01:53:39;;;;;;;44.97;28.73;;;6.30;99.90;;;;;;5108182;28;20456;-73
2022/03/23 01:56:07;;;;;;;46.77;30.33;;;6.20;99.90;;;;;;5104516;28;20043;-73
2022/03/23 01:58:33;;;;;;;50.57;29.47;;;6.20;99.90;;;;;;5125551;28;20066;-73
2022/03/23 02:00:59;;;;;;;49.90;30.17;;;6.20;99.90;;;;;;5125638;28;20039;-73
2022/03/23 02:03:25;;;;;;;59.80;33.43;;;6.20;99.90;;;;;;5108862;28;20031;-73
2022/03/23 02:05:53;;;;;;;47.53;30.77;;;6.20;99.90;;;;;;5093323;28;20051;-73
2022/03/23 02:08:19;;;;;;;52.57;31.20;;;6.20;99.90;;;;;;5108804;28;20182;-73
2022/03/23 02:10:47;;;;;;;56.97;35.40;;;6.10;99.90;;;;;;5098622;28;20063;-73
2022/03/23 02:13:15;;;;;;;49.80;31.80;;;6.10;99.90;;;;;;5106662;28;20105;-73
2022/03/23 02:15:41;;;;;;;51.37;30.80;;;6.00;99.90;;;;;;5111118;28;20050;-73
2022/03/23 02:18:07;;;;;;;58.63;35.07;;;6.00;99.90;;;;;;5120124;28;20413;-73
2022/03/23 02:20:33;;;;;;;50.97;32.87;;;6.00;99.90;;;;;;5114075;28;20093;-73
2022/03/23 02:23:00;;;;;;;54.77;32.73;;;5.90;99.90;;;;;;5129490;28;20049;-73
2022/03/23 02:25:28;;;;;;;56.03;33.73;;;5.90;99.90;;;;;;5123712;27;20047;-73
2022/03/23 02:27:55;;;;;;;49.90;33.03;;;5.90;99.90;;;;;;5121075;27;20037;-73
2022/03/23 02:30:21;;;;;;;54.00;33.37;;;5.80;99.90;;;;;;5125853;27;20043;-73
2022/03/23 02:32:48;;;;;;;48.40;31.63;;;5.80;99.90;;;;;;5124734;27;20051;-73
2022/03/23 02:35:15;;;;;;;47.00;30.07;;;5.80;99.90;;;;;;5124457;27;20066;-73
2022/03/23 02:37:40;;;;;;;49.20;31.67;;;5.80;99.90;;;;;;5133866;27;20043;-73
2022/03/23 02:40:09;;;;;;;62.73;36.47;;;5.70;99.90;;;;;;5121357;27;20043;-73
2022/03/23 02:42:35;;;;;;;45.53;29.63;;;5.70;99.90;;;;;;5124617;27;20081;-73
2022/03/23 02:45:00;;;;;;;45.60;29.13;;;5.70;99.90;;;;;;5119692;27;20063;-73
2022/03/23 02:47:26;;;;;;;46.53;30.00;;;5.70;99.90;;;;;;5126304;27;20058;-73
2022/03/23 02:49:52;;;;;;;56.10;33.30;;;5.60;99.90;;;;;;5123044;27;20566;-73
2022/03/23 02:52:18;;;;;;;52.53;33.00;;;5.60;99.90;;;;;;5130807;27;20043;-72
2022/03/23 03:03:05;;;;;;;53.93;33.23;;;5.50;99.90;;;;;;5133329;27;20047;-73
2022/03/23 03:05:31;;;;;;;51.77;32.53;;;5.50;99.90;;;;;;5130760;27;20043;-73
2022/03/23 03:10:41;;;;;;;51.97;32.88;;;5.50;99.90;;;;;;5125399;27;20096;-73
2022/03/23 03:13:08;;;;;;;47.07;30.13;;;5.40;99.90;;;;;;5130588;27;20043;-73
2022/03/23 03:15:34;;;;;;;54.70;32.90;;;5.40;99.90;;;;;;5122835;27;20067;-72
2022/03/23 03:18:00;;;;;;;61.33;34.53;;;5.40;99.90;;;;;;5133971;27;20078;-73
2022/03/23 03:20:27;;;;;;;56.70;32.93;;;5.40;99.90;;;;;;5126501;27;20046;-73
2022/03/23 03:22:53;;;;;;;52.30;33.17;;;5.30;99.90;;;;;;5132056;27;20074;-73
2022/03/23 03:25:20;;;;;;;55.57;34.23;;;5.30;99.90;;;;;;5124766;27;20027;-73
2022/03/23 03:27:47;;;;;;;58.03;33.77;;;5.30;99.90;;;;;;5125893;27;20043;-73
2022/03/23 03:30:16;;;;;;;54.30;32.60;;;5.30;99.90;;;;;;5132414;27;20034;-73
2022/03/23 03:32:42;;;;;;;49.10;31.10;;;5.30;99.90;;;;;;5122161;27;20059;-73
2022/03/23 03:35:09;;;;;;;47.90;31.50;;;5.20;99.90;;;;;;5126200;27;20035;-73
2022/03/23 03:37:36;;;;;;;53.60;33.60;;;5.20;99.90;;;;;;5125807;27;20086;-73
2022/03/23 03:40:02;;;;;;;53.03;32.00;;;5.20;99.90;;;;;;5123248;27;20042;-73
2022/03/23 03:42:28;;;;;;;53.73;32.33;;;5.20;99.90;;;;;;5120977;27;20036;-72
2022/03/23 03:44:54;;;;;;;59.53;36.67;;;5.20;99.90;;;;;;5117422;27;20112;-73
2022/03/23 03:47:21;;;;;;;65.30;37.57;;;5.10;99.90;;;;;;5131042;27;20043;-73
2022/03/23 03:49:46;;;;;;;61.90;34.70;;;5.10;99.90;;;;;;5124526;27;20047;-72
2022/03/23 03:52:13;;;;;;;52.43;33.53;;;5.10;99.90;;;;;;5116842;27;20122;-72
2022/03/23 03:54:38;;;;;;;52.80;32.97;;;5.00;99.90;;;;;;5130603;27;20126;-72
2022/03/23 03:57:04;;;;;;;56.90;34.03;;;5.00;99.90;;;;;;5124583;27;20541;-73
2022/03/23 03:59:30;;;;;;;64.27;36.13;;;5.00;99.90;;;;;;5131380;27;20039;-72
2022/03/23 04:01:56;;;;;;;45.97;29.70;;;4.90;99.90;;;;;;5124308;27;20164;-72
2022/03/23 04:04:23;;;;;;;55.03;31.70;;;4.90;99.90;;;;;;5116987;27;20095;-73
2022/03/23 04:06:48;;;;;;;48.27;30.90;;;4.90;99.90;;;;;;5131638;27;20058;-73
2022/03/23 04:09:14;;;;;;;46.47;29.00;;;4.90;99.90;;;;;;5120010;27;20407;-73
2022/03/23 04:11:40;;;;;;;46.53;27.93;;;4.90;99.90;;;;;;5130367;27;20061;-73
2022/03/23 04:14:06;;;;;;;53.40;31.77;;;4.80;99.90;;;;;;5129560;27;20036;-73
2022/03/23 04:16:31;;;;;;;54.17;33.07;;;4.80;99.90;;;;;;5125755;27;20054;-72
2022/03/23 04:18:58;;;;;;;52.97;32.60;;;4.80;99.90;;;;;;5133082;27;20091;-73
2022/03/23 04:21:25;;;;;;;58.40;33.73;;;4.70;99.90;;;;;;5127263;27;20035;-73
2022/03/23 04:23:50;;;;;;;54.67;33.87;;;4.70;99.90;;;;;;5131770;27;20066;-73
2022/03/23 04:26:16;;;;;;;57.37;34.03;;;4.70;99.90;;;;;;5125954;27;20078;-73
2022/03/23 04:28:42;;;;;;;54.60;32.73;;;4.70;99.90;;;;;;5126584;27;20504;-73
2022/03/23 04:31:07;;;;;;;52.17;33.60;;;4.70;99.90;;;;;;5129239;27;20046;-73
2022/03/23 04:33:33;;;;;;;55.77;33.67;;;4.60;99.90;;;;;;5114413;27;20035;-73
2022/03/23 04:35:59;;;;;;;56.60;34.97;;;4.60;99.90;;;;;;5118412;27;20050;-73
2022/03/23 04:38:27;;;;;;;56.73;32.40;;;4.60;99.90;;;;;;5128365;27;20039;-73
2022/03/23 04:40:53;;;;;;;54.83;32.53;;;4.60;99.90;;;;;;5122599;27;20042;-73
2022/03/23 04:43:18;;;;;;;64.50;35.50;;;4.60;99.90;;;;;;5131708;27;20065;-73
2022/03/23 04:45:44;;;;;;;55.43;34.30;;;4.50;99.90;;;;;;5117923;27;20075;-73
2022/03/23 04:48:10;;;;;;;48.47;30.47;;;4.50;99.90;;;;;;5122724;27;20167;-73
2022/03/23 04:50:36;;;;;;;54.77;32.03;;;4.50;99.90;;;;;;5132156;27;20095;-73
2022/03/23 04:53:01;;;;;;;55.30;33.30;;;4.50;99.90;;;;;;5124638;27;20572;-73
2022/03/23 04:55:29;;;;;;;56.73;33.60;;;4.50;99.90;;;;;;5115988;27;20079;-73
2022/03/23 04:57:55;;;;;;;61.60;33.60;;;4.50;99.90;;;;;;5123157;27;20096;-73
2022/03/23 05:00:21;;;;;;;59.93;33.87;;;4.50;99.90;;;;;;5121408;27;20051;-73
2022/03/23 05:02:49;;;;;;;60.27;36.43;;;4.50;99.90;;;;;;5124123;27;20557;-73
2022/03/23 05:05:18;;;;;;;49.17;30.93;;;4.40;99.90;;;;;;5124462;27;20481;-73
2022/03/23 05:07:45;;;;;;;47.13;30.30;;;4.50;99.90;;;;;;5106181;28;20384;-73
2022/03/23 05:10:12;;;;;;;44.00;29.90;;;4.50;99.90;;;;;;5119365;27;20344;-73
2022/03/23 05:12:41;;;;;;;48.43;32.00;;;4.40;99.90;;;;;;5121410;27;20039;-73
2022/03/23 05:15:08;;;;;;;50.17;30.27;;;4.40;99.90;;;;;;5129512;27;20043;-73
2022/03/23 05:17:35;;;;;;;48.23;29.20;;;4.40;99.90;;;;;;5123334;27;20436;-73
2022/03/23 05:20:01;;;;;;;49.50;31.33;;;4.30;99.90;;;;;;5127391;27;20038;-73
2022/03/23 05:22:27;;;;;;;55.10;32.07;;;4.30;99.90;;;;;;5121227;27;20072;-73
2022/03/23 05:24:53;;;;;;;47.10;30.40;;;4.30;99.90;;;;;;5130328;27;20054;-73
2022/03/23 05:27:19;;;;;;;45.07;28.60;;;4.30;99.90;;;;;;5124218;27;20044;-73
2022/03/23 05:29:46;;;;;;;40.30;25.27;;;4.30;99.90;;;;;;5122903;27;20461;-73
2022/03/23 05:32:16;;;;;;;48.80;29.33;;;4.20;99.90;;;;;;5123171;28;20066;-72
2022/03/23 05:34:42;;;;;;;47.57;30.30;;;4.30;99.90;;;;;;5126140;28;20321;-73
2022/03/23 05:37:08;;;;;;;51.57;32.60;;;4.20;99.90;;;;;;5124668;28;20142;-73
2022/03/23 05:39:33;;;;;;;50.20;31.93;;;4.30;99.90;;;;;;5122128;28;20383;-73
2022/03/23 05:41:59;;;;;;;50.57;30.27;;;4.20;99.90;;;;;;5119668;28;20043;-73
2022/03/23 05:44:24;;;;;;;47.83;30.57;;;4.30;99.90;;;;;;5131714;28;20035;-73
2022/03/23 05:46:51;;;;;;;51.10;30.63;;;4.30;99.90;;;;;;5126872;28;20096;-73
2022/03/23 05:49:17;;;;;;;54.13;33.13;;;4.30;99.90;;;;;;5120489;28;20583;-73
2022/03/23 05:51:43;;;;;;;49.80;31.80;;;4.30;99.90;;;;;;5121840;28;20383;-73
2022/03/23 05:54:09;;;;;;;54.77;32.73;;;4.30;99.90;;;;;;5121570;28;20114;-73
2022/03/23 05:56:34;;;;;;;60.23;36.40;;;4.40;99.90;;;;;;5129079;28;20051;-73
2022/03/23 05:59:00;;;;;;;59.83;36.40;;;4.40;99.90;;;;;;5128545;27;20477;-73
2022/03/23 06:01:26;;;;;;;60.07;37.20;;;4.40;99.90;;;;;;5110302;28;20051;-73
2022/03/23 06:03:53;;;;;;;57.40;35.73;;;4.50;99.90;;;;;;5128519;27;20070;-73
2022/03/23 06:06:18;;;;;;;57.47;35.40;;;4.60;99.90;;;;;;5124383;27;20426;-72
2022/03/23 06:08:44;;;;;;;66.43;39.47;;;4.70;99.90;;;;;;5130752;27;20103;-73
2022/03/23 06:11:10;;;;;;;62.37;35.80;;;4.80;99.90;;;;;;5132308;27;20515;-73
2022/03/23 06:13:36;;;;;;;52.27;33.73;;;4.90;99.90;;;;;;5125326;27;20051;-73
2022/03/23 06:16:01;;;;;;;51.93;33.27;;;5.00;99.90;;;;;;5127375;27;20053;-73
2022/03/23 06:18:27;;;;;;;53.50;33.60;;;5.20;99.90;;;;;;5130121;27;20039;-73
2022/03/23 06:20:54;;;;;;;58.97;34.70;;;5.40;99.90;;;;;;5134850;27;20501;-73
2022/03/23 06:23:20;;;;;;;57.07;36.00;;;5.50;99.90;;;;;;5124635;27;20043;-73
2022/03/23 06:25:46;;;;;;;60.80;37.47;;;5.70;99.90;;;;;;5126351;27;20050;-73
2022/03/23 06:28:11;;;;;;;55.30;35.60;;;5.80;99.90;;;;;;5133084;27;20077;-73
2022/03/23 06:30:37;;;;;;;55.83;35.23;;;5.90;99.90;;;;;;5130342;27;20489;-73
2022/03/23 06:33:03;;;;;;;56.83;36.00;;;6.00;99.90;;;;;;5129527;27;20055;-73
2022/03/23 06:35:29;;;;;;;55.77;33.80;;;6.30;99.90;;;;;;5134901;27;20412;-73
2022/03/23 06:37:56;;;;;;;53.00;33.13;;;6.50;99.90;;;;;;5126620;27;20072;-73
2022/03/23 06:40:22;;;;;;;54.60;31.90;;;6.80;99.90;;;;;;5121328;27;20420;-73
2022/03/23 06:42:48;;;;;;;50.33;30.63;;;7.00;99.90;;;;;;5124309;27;20046;-73
2022/03/23 06:45:14;;;;;;;60.60;38.40;;;7.10;99.90;;;;;;5123962;27;20039;-73
2022/03/23 06:47:40;;;;;;;54.50;35.73;;;7.10;99.90;;;;;;5127436;27;20043;-73
2022/03/23 06:50:07;;;;;;;59.40;37.30;;;7.00;99.90;;;;;;5126856;27;20081;-73
2022/03/23 06:52:33;;;;;;;58.17;36.37;;;7.00;99.90;;;;;;5131173;27;20516;-73
2022/03/23 06:55:00;;;;;;;55.83;36.57;;;7.00;99.90;;;;;;5123928;27;20087;-73
2022/03/23 06:57:26;;;;;;;56.83;37.00;;;7.00;99.90;;;;;;5114834;27;20047;-73
2022/03/23 06:59:52;;;;;;;54.80;34.43;;;7.10;99.90;;;;;;5119611;27;20058;-73
2022/03/23 07:02:17;;;;;;;53.53;35.17;;;7.30;99.90;;;;;;5134885;27;20092;-73
2022/03/23 07:04:43;;;;;;;53.43;35.70;;;7.50;99.90;;;;;;5124505;27;20406;-73
2022/03/23 07:07:09;;;;;;;58.20;35.83;;;7.80;99.90;;;;;;5133436;27;20066;-73
2022/03/23 07:09:38;;;;;;;62.00;37.07;;;8.30;99.90;;;;;;5127360;27;20493;-73
2022/03/23 07:12:07;;;;;;;49.67;34.50;;;9.10;99.90;;;;;;5119802;27;20397;-73
2022/03/23 07:14:34;;;;;;;49.13;32.47;;;10.00;99.90;;;;;;5121511;27;20475;-73
2022/03/23 07:17:00;;;;;;;45.60;33.17;;;10.50;99.90;;;;;;5120420;27;20130;-74
2022/03/23 07:19:26;;;;;;;40.87;30.60;;;11.10;99.90;;;;;;5124048;27;20114;-73
2022/03/23 07:21:53;;;;;;;44.53;32.93;;;11.50;99.90;;;;;;5132166;27;20465;-73
2022/03/23 07:24:19;;;;;;;50.77;33.27;;;11.80;99.90;;;;;;5133781;27;20042;-73
2022/03/23 07:26:45;;;;;;;52.70;35.53;;;11.90;99.90;;;;;;5123145;27;20411;-73
2022/03/23 07:29:13;;;;;;;49.50;34.63;;;12.00;99.90;;;;;;5131237;27;20043;-73
2022/03/23 07:31:39;;;;;;;51.43;35.00;;;12.70;99.90;;;;;;5120695;27;20051;-74
2022/03/23 07:34:04;;;;;;;43.20;32.07;;;13.60;99.90;;;;;;5123474;27;20489;-73
2022/03/23 07:36:30;;;;;;;40.97;31.27;;;14.10;99.90;;;;;;5133297;27;20035;-73
2022/03/23 07:38:56;;;;;;;45.13;29.50;;;14.10;99.90;;;;;;5128038;27;20051;-73
2022/03/23 07:41:22;;;;;;;40.73;28.23;;;14.10;99.90;;;;;;5129509;27;20079;-73
2022/03/23 07:43:49;;;;;;;39.00;28.10;;;13.90;99.90;;;;;;5130212;27;20120;-73
2022/03/23 07:46:16;;;;;;;34.03;25.33;;;14.20;99.90;;;;;;5128536;27;20047;-73
2022/03/23 07:48:41;;;;;;;34.80;27.20;;;14.60;99.90;;;;;;5124983;27;20070;-73
2022/03/23 07:51:07;;;;;;;38.07;25.07;;;14.60;99.90;;;;;;5126932;27;20126;-73
2022/03/23 07:53:33;;;;;;;37.37;24.30;;;14.50;99.00;;;;;;5124123;27;20058;-73
2022/03/23 07:55:59;;;;;;;31.87;23.37;;;14.30;97.90;;;;;;5125025;27;20039;-73
2022/03/23 07:58:25;;;;;;;30.80;22.27;;;14.10;96.00;;;;;;5123587;27;20046;-73
2022/03/23 08:00:51;;;;;;;27.90;22.07;;;13.80;94.30;;;;;;5126404;27;20035;-73
2022/03/23 08:03:18;;;;;;;31.37;20.47;;;13.60;93.70;;;;;;5126432;27;20050;-73
2022/03/23 08:05:44;;;;;;;28.87;21.80;;;13.50;92.30;;;;;;5132146;27;20042;-73
2022/03/23 08:08:10;;;;;;;30.47;20.73;;;13.30;91.20;;;;;;5124080;27;20039;-73
2022/03/23 08:10:37;;;;;;;29.40;21.17;;;13.30;91.70;;;;;;5118332;27;20047;-73
2022/03/23 08:13:02;;;;;;;29.00;20.97;;;13.30;89.20;;;;;;5120231;27;20043;-73
2022/03/23 08:15:29;;;;;;;31.67;20.87;;;13.30;87.60;;;;;;5132838;27;20061;-73
2022/03/23 08:17:55;;;;;;;29.73;20.90;;;13.30;86.80;;;;;;5127358;27;20081;-73
2022/03/23 08:20:37;;;;;;;33.30;22.97;;;13.30;86.70;;;;;;5118516;27;20043;-73
2022/03/23 08:23:05;;;;;;;32.83;21.90;;;13.30;86.00;;;;;;5122556;27;20058;-74
2022/03/23 08:25:31;;;;;;;30.67;20.43;;;13.40;88.00;;;;;;5123848;27;20036;-73
2022/03/23 08:27:58;;;;;;;28.63;21.20;;;13.50;87.30;;;;;;5119837;27;20533;-74
2022/03/23 08:30:24;;;;;;;27.17;21.43;;;13.70;86.50;;;;;;5123922;27;20043;-73
2022/03/23 08:32:50;;;;;;;31.60;21.63;;;14.00;88.90;;;;;;5116103;27;20130;-74
2022/03/23 08:35:16;;;;;;;28.03;20.63;;;14.40;90.90;;;;;;5120514;27;20043;-74
2022/03/23 08:37:43;;;;;;;25.20;19.07;;;14.90;90.70;;;;;;5123807;27;20043;-74
2022/03/23 08:40:10;;;;;;;25.43;19.17;;;15.30;87.60;;;;;;5121429;27;20055;-73
2022/03/23 08:42:36;;;;;;;25.67;18.03;;;15.70;82.60;;;;;;5124353;27;20501;-74
2022/03/23 08:45:03;;;;;;;27.40;19.30;;;16.00;74.70;;;;;;5124761;27;20067;-74
2022/03/23 08:47:29;;;;;;;27.10;19.17;;;16.30;78.50;;;;;;5123393;27;20043;-74
2022/03/23 08:49:56;;;;;;;26.90;19.47;;;16.60;81.60;;;;;;5117334;27;20463;-74
2022/03/23 08:52:21;;;;;;;23.40;17.83;;;17.20;73.20;;;;;;5114534;27;20104;-74
2022/03/23 08:54:48;;;;;;;23.67;17.60;;;17.70;69.90;;;;;;5121254;27;20035;-74
2022/03/23 08:57:14;;;;;;;25.07;18.23;;;18.00;66.70;;;;;;5115233;27;20499;-73
2022/03/23 08:59:40;;;;;;;19.97;16.87;;;18.00;64.00;;;;;;5099034;27;20046;-74
2022/03/23 09:02:06;;;;;;;21.93;16.00;;;18.00;57.10;;;;;;5125264;27;20031;-74
2022/03/23 09:04:32;;;;;;;23.90;15.90;;;18.00;57.30;;;;;;5123339;27;20039;-74
2022/03/23 09:06:58;;;;;;;19.30;14.97;;;18.00;55.80;;;;;;5122681;27;20039;-74
2022/03/23 09:09:24;;;;;;;20.00;14.93;;;18.00;55.80;;;;;;5121056;27;20170;-74
2022/03/23 09:11:51;;;;;;;18.87;14.83;;;18.00;51.10;;;;;;5122999;27;20059;-74
2022/03/23 09:14:16;;;;;;;20.43;14.90;;;18.10;52.80;;;;;;5121500;27;20051;-73
2022/03/23 09:16:43;;;;;;;19.47;14.10;;;18.20;51.30;;;;;;5124570;27;20554;-74
2022/03/23 09:19:09;;;;;;;19.03;14.70;;;18.30;49.90;;;;;;5100793;27;20062;-74
2022/03/23 09:21:38;;;;;;;16.63;13.70;;;18.40;49.40;;;;;;5117465;27;20042;-73
2022/03/23 09:24:04;;;;;;;15.67;13.17;;;18.50;48.00;;;;;;5125021;27;20042;-73
2022/03/23 09:26:30;;;;;;;18.97;14.40;;;18.60;43.70;;;;;;5116686;27;20110;-73
2022/03/23 09:28:58;;;;;;;21.97;14.13;;;18.70;44.30;;;;;;5118403;27;20122;-74
2022/03/23 09:31:23;;;;;;;18.03;14.37;;;19.20;44.40;;;;;;5121000;27;20055;-74
2022/03/23 09:33:49;;;;;;;19.97;13.87;;;20.20;44.40;;;;;;5120606;27;20047;-74
2022/03/23 09:39:00;;;;;;;17.83;14.80;;;22.30;41.70;;;;;;5117972;28;20406;-74
2022/03/23 09:41:27;;;;;;;15.67;13.27;;;23.20;40.30;;;;;;5122490;28;20150;-74
2022/03/23 09:43:53;;;;;;;14.60;13.10;;;23.80;36.30;;;;;;5123779;28;20066;-75
2022/03/23 09:46:20;;;;;;;17.20;13.37;;;24.30;34.90;;;;;;5116422;28;20527;-75
2022/03/23 09:48:46;;;;;;;23.63;13.33;;;25.00;33.20;;;;;;5117855;28;20126;-74
2022/03/23 09:51:13;;;;;;;16.70;12.80;;;25.70;35.90;;;;;;5117034;28;20130;-75
2022/03/23 09:53:40;;;;;;;17.80;13.23;;;26.20;31.00;;;;;;5124210;27;20043;-74
2022/03/23 09:56:06;;;;;;;14.38;12.88;;;26.50;31.00;;;;;;5126150;28;20054;-74
2022/03/23 09:58:32;;;;;;;13.93;12.52;;;26.80;30.00;;;;;;5121413;28;20051;-74
2022/03/23 10:00:58;;;;;;;14.23;12.65;;;27.10;29.70;;;;;;5130757;28;20039;-74
2022/03/23 10:04:06;;;;;;;14.27;11.98;;;27.40;29.00;;;;;;5125524;27;20035;-75
2022/03/23 10:07:06;;;;;;;14.20;12.70;;;27.40;27.40;;;;;;5119377;28;20536;-74
2022/03/23 10:10:08;;;;;;;14.40;12.38;;;27.30;28.20;;;;;;5122268;28;20055;-75
2022/03/23 10:13:42;;;;;;;15.23;12.95;;;27.70;27.30;;;;;;5124069;27;20079;-75
2022/03/23 10:16:37;;;;;;;13.13;11.73;;;28.10;27.60;;;;;;5118818;28;20416;-74
2022/03/23 10:19:05;;;;;;;16.30;12.20;;;28.70;27.90;;;;;;5119873;28;20441;-75
2022/03/23 10:21:33;;;;;;;16.58;11.88;;;29.00;27.30;;;;;;5120827;28;20557;-75
2022/03/23 10:24:31;;;;;;;14.68;11.95;;;29.10;29.50;;;;;;5098903;28;20044;-74
2022/03/23 10:26:58;;;;;;;14.52;12.63;;;29.70;29.20;;;;;;5119334;28;20141;-74
2022/03/23 10:29:25;;;;;;;26.25;11.93;;;29.80;28.30;;;;;;5121544;28;20035;-75
2022/03/23 10:32:06;;;;;;;13.75;12.35;;;29.90;28.40;;;;;;5124314;28;20039;-75
2022/03/23 10:34:41;;;;;;;16.20;11.55;;;30.00;26.60;;;;;;5118217;28;20089;-77
2022/03/23 10:37:07;;;;;;;13.45;11.23;;;30.10;26.20;;;;;;5121223;28;20577;-75
2022/03/23 10:39:33;;;;;;;16.77;11.07;;;29.90;26.30;;;;;;5119270;28;20072;-76
2022/03/23 10:42:05;;;;;;;14.63;11.75;;;30.00;26.90;;;;;;5121186;27;20484;-76
2022/03/23 10:44:30;;;;;;;18.98;11.25;;;29.80;25.70;;;;;;5123998;28;20076;-75
2022/03/23 10:46:58;;;;;;;18.50;12.43;;;29.60;26.50;;;;;;5115792;27;20039;-75
2022/03/23 10:49:31;;;;;;;16.83;11.40;;;29.90;26.50;;;;;;5124003;27;20398;-75
2022/03/23 10:52:07;;;;;;;17.23;12.80;;;29.50;24.90;;;;;;5123539;27;20493;-74
2022/03/23 10:54:32;;;;;;;17.90;11.13;;;29.40;27.30;;;;;;5129885;27;20052;-76
2022/03/23 10:56:58;;;;;;;12.00;10.73;;;29.50;26.30;;;;;;5119695;27;20049;-74
2022/03/23 10:59:26;;;;;;;21.02;11.18;;;29.30;25.70;;;;;;5128458;27;20381;-76
2022/03/23 11:02:00;;;;;;;15.63;10.55;;;29.60;27.60;;;;;;5130364;27;20066;-76
2022/03/23 11:04:29;;;;;;;14.35;10.45;;;29.90;25.90;;;;;;5122343;27;20401;-75
2022/03/23 11:06:56;;;;;;;16.25;11.20;;;29.90;25.80;;;;;;5128362;27;20043;-74
2022/03/23 11:17:48;;;;;;;22.23;11.25;;;29.70;25.40;;;;;;5122072;27;20043;-75
2022/03/23 11:20:15;;;;;;;19.02;11.45;;;29.60;25.40;;;;;;5127821;27;20088;-74
2022/03/23 11:22:41;;;;;;;21.92;12.10;;;29.80;25.60;;;;;;5119695;27;20071;-76
2022/03/23 11:25:08;;;;;;;16.77;12.63;;;29.80;26.40;;;;;;5119068;27;20054;-74
2022/03/23 11:27:36;;;;;;;20.30;12.50;;;29.60;26.80;;;;;;5120447;27;20074;-74
2022/03/23 11:30:03;;;;;;;17.05;11.60;;;29.40;25.70;;;;;;5116792;27;20044;-74
2022/03/23 11:32:37;;;;;;;22.10;12.35;;;29.10;26.30;;;;;;5118926;27;20100;-74
2022/03/23 11:35:06;;;;;;;17.00;12.75;;;28.90;26.70;;;;;;5119400;27;20047;-74
2022/03/23 11:37:37;;;;;;;22.50;11.50;;;28.40;26.80;;;;;;5133109;27;20116;-79
2022/03/23 11:40:04;;;;;;;21.55;11.35;;;28.50;27.60;;;;;;5133222;27;20066;-77
2022/03/23 11:42:32;;;;;;;19.35;10.82;;;29.00;28.10;;;;;;5129548;27;20047;-76
2022/03/23 11:44:58;;;;;;;22.88;10.82;;;29.00;27.80;;;;;;5089786;27;20039;-78
2022/03/23 11:47:33;;;;;;;17.75;9.10;;;29.10;26.90;;;;;;5129610;27;20047;-78
2022/03/23 11:50:08;;;;;;;25.48;9.25;;;29.00;27.10;;;;;;5138712;27;20084;-80
2022/03/23 11:52:41;;;;;;;20.67;9.35;;;28.80;27.80;;;;;;5114307;27;20104;-77
2022/03/23 11:58:23;;;;;;;20.45;8.93;;;28.10;27.30;;;;;;5137660;27;20047;-74
2022/03/23 12:00:51;;;;;;;24.35;8.75;;;27.80;28.10;;;;;;5137737;27;20054;-78
2022/03/23 12:03:50;;;;;;;27.35;9.25;;;27.60;28.40;;;;;;5134080;27;20083;-79
2022/03/23 12:06:18;;;;;;;15.43;9.32;;;27.50;27.60;;;;;;5126847;27;20035;-77
2022/03/23 12:08:49;;;;;;;24.17;9.88;;;27.30;29.30;;;;;;5100935;27;20039;-78
2022/03/23 12:11:49;;;;;;;19.00;10.18;;;27.40;29.40;;;;;;5128386;27;20104;-78
2022/03/23 12:14:23;;;;;;;19.33;9.88;;;27.20;28.30;;;;;;5110949;27;20420;-79
2022/03/23 12:17:09;;;;;;;19.77;8.40;;;27.10;29.40;;;;;;5122951;27;20069;-77
2022/03/23 12:20:01;;;;;;;19.05;8.20;;;27.10;29.30;;;;;;5127543;27;20035;-76
2022/03/23 12:23:02;;;;;;;17.85;8.57;;;27.10;28.80;;;;;;5136434;27;20039;-78
2022/03/23 12:25:37;;;;;;;21.58;8.30;;;26.60;27.20;;;;;;5120877;27;20043;-77
2022/03/23 12:28:17;;;;;;;21.05;8.98;;;25.80;27.30;;;;;;5127107;27;20044;-78
2022/03/23 12:31:01;;;;;;;16.73;7.60;;;25.50;29.10;;;;;;5131430;27;20046;-76
2022/03/23 12:33:29;;;;;;;20.90;8.85;;;25.40;27.60;;;;;;5116626;27;20043;-78
2022/03/23 12:35:59;;;;;;;18.65;8.40;;;25.00;29.20;;;;;;5119709;27;20039;-77
2022/03/23 12:38:27;;;;;;;22.80;7.57;;;25.00;30.00;;;;;;5129542;27;20045;-76
2022/03/23 12:40:56;;;;;;;17.33;8.98;;;24.90;28.90;;;;;;5125743;27;20084;-76
2022/03/23 12:43:37;;;;;;;21.27;9.37;;;24.60;28.30;;;;;;5125487;27;20040;-76
2022/03/23 12:46:15;;;;;;;22.23;9.47;;;24.50;29.40;;;;;;5114763;28;20401;-77
2022/03/23 13:00:11;;;;;;;23.48;8.13;;;24.90;31.50;;;;;;5137742;27;20031;-79
2022/03/23 13:02:39;;;;;;;18.07;7.73;;;24.90;29.70;;;;;;5134503;27;20098;-78
2022/03/23 13:05:05;;;;;;;19.13;7.17;;;24.60;30.20;;;;;;5111748;27;20039;-78
2022/03/23 13:07:41;;;;;;;23.27;8.03;;;24.50;29.50;;;;;;5130970;27;20466;-77
2022/03/23 13:10:10;;;;;;;19.83;8.13;;;24.40;30.00;;;;;;5129248;27;20039;-78
2022/03/23 13:12:38;;;;;;;22.67;7.73;;;24.30;29.40;;;;;;5122844;27;20046;-78
2022/03/23 13:15:10;;;;;;;18.23;9.07;;;24.20;30.80;;;;;;5132360;27;20039;-78